createdAt,value
2022-10-25T00:01:27.322Z,8.60
2022-10-25T00:03:55.345Z,9.70
2022-10-25T00:06:22.965Z,10.10
2022-10-25T00:08:50.030Z,10.83
2022-10-25T00:11:23.047Z,7.83
2022-10-25T00:13:51.753Z,8.47
2022-10-25T00:16:22.959Z,10.47
2022-10-25T00:18:50.666Z,14.30
2022-10-25T00:21:18.293Z,9.73
2022-10-25T00:23:45.368Z,10.63
2022-10-25T00:26:12.970Z,11.97
2022-10-25T00:28:40.481Z,13.30
2022-10-25T00:31:13.074Z,13.30
2022-10-25T00:33:41.573Z,15.67
2022-10-25T00:36:12.000Z,10.40
2022-10-25T00:38:39.323Z,14.10
2022-10-25T00:41:07.280Z,11.97
2022-10-25T00:43:40.535Z,13.57
2022-10-25T00:46:16.790Z,12.43
2022-10-25T00:49:04.958Z,18.90
2022-10-25T00:51:37.509Z,14.77
2022-10-25T00:54:05.240Z,18.60
2022-10-25T00:56:37.793Z,16.93
2022-10-25T00:59:09.773Z,18.10
2022-10-25T01:01:37.631Z,13.37
2022-10-25T01:04:09.126Z,16.70
2022-10-25T01:06:42.902Z,12.00
2022-10-25T01:09:13.006Z,17.37
2022-10-25T01:11:39.954Z,17.07
2022-10-25T01:14:09.207Z,18.63
2022-10-25T01:17:04.530Z,12.27
2022-10-25T01:19:59.543Z,12.87
2022-10-25T01:22:48.432Z,15.53
2022-10-25T01:25:40.080Z,16.27
2022-10-25T01:28:09.949Z,17.50
2022-10-25T01:31:10.625Z,11.40
2022-10-25T01:34:03.941Z,10.50
2022-10-25T01:37:09.843Z,14.07
2022-10-25T01:39:59.991Z,14.87
2022-10-25T01:42:43.993Z,13.07
2022-10-25T01:45:21.479Z,13.07
2022-10-25T01:47:56.039Z,13.87
2022-10-25T01:50:28.268Z,7.67
2022-10-25T01:55:40.367Z,12.90
2022-10-25T01:58:34.658Z,10.53
2022-10-25T02:02:09.517Z,11.20
2022-10-25T02:05:15.294Z,10.43
2022-10-25T02:08:03.280Z,10.70
2022-10-25T02:10:42.188Z,12.07
2022-10-25T02:13:33.328Z,11.53
2022-10-25T02:16:31.981Z,10.50
2022-10-25T02:19:02.563Z,10.07
2022-10-25T02:21:33.415Z,11.43
2022-10-25T02:24:08.282Z,11.00
2022-10-25T02:26:36.390Z,9.20
2022-10-25T02:29:07.003Z,13.17
2022-10-25T02:31:36.469Z,8.10
2022-10-25T02:34:04.341Z,11.03
2022-10-25T02:36:31.440Z,11.77
2022-10-25T02:39:00.143Z,16.07
2022-10-25T02:41:27.295Z,17.07
2022-10-25T02:43:54.355Z,14.07
2022-10-25T02:46:23.348Z,12.43
2022-10-25T02:48:51.019Z,11.70
2022-10-25T02:51:18.977Z,12.67
2022-10-25T02:53:46.090Z,15.50
2022-10-25T02:56:19.611Z,18.60
2022-10-25T02:58:47.839Z,17.00
2022-10-25T03:01:16.656Z,10.73
2022-10-25T03:03:43.734Z,16.07
2022-10-25T03:06:11.409Z,12.33
2022-10-25T03:08:39.676Z,14.63
2022-10-25T03:11:08.650Z,11.63
2022-10-25T03:13:35.817Z,14.30
2022-10-25T03:16:03.177Z,12.27
2022-10-25T03:18:30.094Z,11.27
2022-10-25T03:20:58.564Z,11.37
2022-10-25T03:23:26.064Z,18.70
2022-10-25T03:25:54.408Z,16.27
2022-10-25T03:28:21.948Z,12.83
2022-10-25T03:30:49.001Z,12.53
2022-10-25T03:33:16.689Z,17.70
2022-10-25T03:35:43.621Z,12.57
2022-10-25T03:38:10.612Z,11.87
2022-10-25T03:40:37.493Z,16.20
2022-10-25T03:43:04.448Z,13.50
2022-10-25T03:45:31.426Z,13.07
2022-10-25T03:47:58.336Z,14.43
2022-10-25T03:50:25.420Z,15.67
2022-10-25T03:52:52.368Z,14.70
2022-10-25T03:55:19.556Z,15.10
2022-10-25T03:57:46.582Z,17.87
2022-10-25T04:00:14.484Z,17.40
2022-10-25T04:02:41.319Z,18.80
2022-10-25T04:05:08.766Z,15.30
2022-10-25T04:07:35.758Z,17.10
2022-10-25T04:10:03.502Z,22.83
2022-10-25T04:12:30.706Z,24.10
2022-10-25T04:14:57.592Z,26.03
2022-10-25T04:17:24.678Z,24.73
2022-10-25T04:19:51.574Z,29.83
2022-10-25T04:22:18.663Z,21.07
2022-10-25T04:24:45.957Z,17.27
2022-10-25T04:27:13.173Z,19.87
2022-10-25T04:29:40.285Z,13.80
2022-10-25T04:32:07.293Z,20.33
2022-10-25T04:34:34.207Z,19.57
2022-10-25T04:37:01.184Z,15.17
2022-10-25T04:39:28.004Z,12.80
2022-10-25T04:41:54.947Z,15.57
2022-10-25T04:44:21.872Z,18.53
2022-10-25T04:46:49.116Z,12.27
2022-10-25T04:49:16.552Z,21.73
2022-10-25T04:51:44.172Z,16.13
2022-10-25T04:54:14.294Z,26.03
2022-10-25T04:56:41.290Z,31.80
2022-10-25T04:59:09.434Z,23.37
2022-10-25T05:01:36.493Z,16.60
2022-10-25T05:04:03.776Z,25.27
2022-10-25T05:06:30.772Z,19.77
2022-10-25T05:08:57.732Z,23.47
2022-10-25T05:11:25.481Z,24.87
2022-10-25T05:13:52.862Z,14.80
2022-10-25T05:16:23.757Z,25.80
2022-10-25T05:18:54.547Z,20.80
2022-10-25T05:23:58.923Z,28.03
2022-10-25T05:26:28.589Z,22.27
2022-10-25T05:28:55.719Z,12.90
2022-10-25T05:31:26.006Z,23.63
2022-10-25T05:33:56.058Z,19.67
2022-10-25T05:36:23.308Z,13.20
2022-10-25T05:38:50.285Z,32.63
2022-10-25T05:41:18.096Z,18.07
2022-10-25T05:43:46.032Z,16.73
2022-10-25T05:46:18.779Z,25.57
2022-10-25T05:48:48.902Z,16.60
2022-10-25T05:51:33.188Z,22.30
2022-10-25T05:54:04.636Z,15.73
2022-10-25T05:56:33.264Z,19.73
2022-10-25T05:59:09.042Z,18.63
2022-10-25T06:01:41.196Z,21.80
2022-10-25T06:04:09.106Z,21.67
2022-10-25T06:06:37.593Z,26.70
2022-10-25T06:09:05.557Z,28.60
2022-10-25T06:11:33.246Z,18.33
2022-10-25T06:14:00.272Z,32.63
2022-10-25T06:16:27.230Z,23.60
2022-10-25T06:18:54.754Z,21.77
2022-10-25T06:21:24.278Z,12.55
2022-10-25T06:23:51.705Z,19.00
2022-10-25T06:26:22.351Z,21.48
2022-10-25T06:28:52.530Z,13.73
2022-10-25T06:31:20.489Z,10.27
2022-10-25T06:33:47.768Z,11.02
2022-10-25T06:36:19.861Z,10.07
2022-10-25T06:38:48.068Z,12.20
2022-10-25T06:41:17.581Z,11.00
2022-10-25T06:43:44.957Z,19.65
2022-10-25T06:46:20.171Z,16.55
2022-10-25T06:48:47.253Z,7.32
2022-10-25T06:51:14.640Z,10.02
2022-10-25T06:53:41.623Z,21.00
2022-10-25T06:56:14.449Z,10.20
2022-10-25T06:58:42.508Z,17.85
2022-10-25T07:01:17.645Z,14.35
2022-10-25T07:03:46.096Z,14.55
2022-10-25T07:06:17.968Z,10.52
2022-10-25T07:08:46.969Z,17.17
2022-10-25T07:11:19.145Z,11.15
2022-10-25T07:13:46.881Z,10.90
2022-10-25T07:16:16.064Z,17.10
2022-10-25T07:18:43.463Z,23.45
2022-10-25T07:21:15.856Z,16.25
2022-10-25T07:23:43.877Z,15.05
2022-10-25T07:26:19.942Z,21.75
2022-10-25T07:28:48.217Z,14.60
2022-10-25T07:31:18.194Z,15.70
2022-10-25T07:33:45.298Z,12.43
2022-10-25T07:36:12.420Z,17.77
2022-10-25T07:38:39.963Z,21.58
2022-10-25T07:41:07.417Z,24.88
2022-10-25T07:43:34.850Z,24.85
2022-10-25T07:46:01.900Z,24.40
2022-10-25T07:48:28.958Z,14.93
2022-10-25T07:50:55.918Z,17.27
2022-10-25T07:53:22.760Z,23.67
2022-10-25T07:55:55.055Z,12.93
2022-10-25T07:58:22.490Z,13.40
2022-10-25T08:00:49.671Z,6.68
2022-10-25T08:03:18.524Z,9.30
2022-10-25T08:05:49.732Z,8.25
2022-10-25T08:08:16.720Z,9.57
2022-10-25T08:10:44.686Z,10.73
2022-10-25T08:13:11.869Z,8.88
2022-10-25T08:15:41.017Z,6.25
2022-10-25T08:18:09.704Z,10.07
2022-10-25T08:21:00.698Z,5.75
2022-10-25T08:23:25.419Z,12.10
2022-10-25T08:25:52.684Z,8.10
2022-10-25T08:28:19.841Z,10.60
2022-10-25T08:30:46.937Z,12.57
2022-10-25T08:33:13.853Z,15.88
2022-10-25T08:35:40.750Z,13.88
2022-10-25T08:38:07.664Z,11.45
2022-10-25T08:40:49.702Z,13.05
2022-10-25T08:43:40.683Z,12.20
2022-10-25T08:46:22.090Z,12.48
2022-10-25T08:48:57.587Z,14.57
2022-10-25T08:51:27.275Z,9.07
2022-10-25T08:53:58.368Z,12.18
2022-10-25T08:56:27.253Z,7.25
2022-10-25T08:59:01.078Z,6.97
2022-10-25T09:01:44.868Z,6.55
2022-10-25T09:04:11.922Z,8.20
2022-10-25T09:06:47.783Z,12.63
2022-10-25T09:12:02.205Z,8.13
2022-10-25T09:15:03.037Z,12.82
2022-10-25T09:17:44.763Z,4.00
2022-10-25T09:20:21.066Z,2.58
2022-10-25T09:25:33.496Z,5.07
2022-10-25T09:28:03.845Z,24.55
2022-10-25T09:30:37.651Z,12.13
2022-10-25T09:33:10.613Z,3.53
2022-10-25T09:35:45.759Z,5.07
2022-10-25T09:38:19.532Z,1.75
2022-10-25T09:40:49.774Z,3.85
2022-10-25T09:43:22.340Z,8.55
2022-10-25T09:45:55.954Z,4.00
2022-10-25T09:48:24.424Z,1.40
2022-10-25T09:51:01.205Z,3.30
2022-10-25T09:53:32.409Z,2.13
2022-10-25T09:56:01.560Z,11.10
2022-10-25T09:58:30.620Z,3.10
2022-10-25T10:01:13.089Z,3.00
2022-10-25T10:03:41.402Z,7.82
2022-10-25T10:06:35.339Z,9.48
2022-10-25T10:09:13.715Z,6.38
2022-10-25T10:11:42.036Z,3.83
2022-10-25T10:14:18.601Z,4.07
2022-10-25T10:16:50.064Z,4.80
2022-10-25T10:19:21.035Z,4.22
2022-10-25T10:22:16.930Z,7.68
2022-10-25T10:25:01.018Z,3.05
2022-10-25T10:27:29.263Z,2.53
2022-10-25T10:29:58.047Z,5.47
2022-10-25T10:32:36.396Z,3.03
2022-10-25T10:35:22.098Z,7.65
2022-10-25T10:37:49.292Z,3.28
2022-10-25T10:40:19.440Z,5.57
2022-10-25T10:42:46.803Z,7.07
2022-10-25T10:45:18.832Z,5.82
2022-10-25T10:47:51.557Z,6.22
2022-10-25T10:50:22.142Z,5.90
2022-10-25T10:53:04.512Z,6.72
2022-10-25T10:55:37.821Z,6.80
2022-10-25T10:58:15.158Z,10.73
2022-10-25T11:00:54.499Z,6.75
2022-10-25T11:03:36.348Z,7.22
2022-10-25T11:06:06.894Z,2.65
2022-10-25T11:08:34.398Z,4.05
2022-10-25T11:11:19.095Z,8.23
2022-10-25T11:13:57.439Z,10.55
2022-10-25T11:16:48.679Z,3.00
2022-10-25T11:19:21.439Z,12.65
2022-10-25T11:22:17.020Z,3.75
2022-10-25T11:25:21.037Z,3.65
2022-10-25T11:28:06.331Z,6.88
2022-10-25T11:30:45.313Z,7.25
2022-10-25T11:33:28.764Z,5.93
2022-10-25T11:36:09.795Z,5.57
2022-10-25T11:38:59.275Z,5.28
2022-10-25T11:41:45.366Z,6.10
2022-10-25T11:44:27.233Z,5.43
2022-10-25T11:47:24.618Z,6.00
2022-10-25T11:49:59.320Z,4.30
2022-10-25T11:53:12.598Z,13.20
2022-10-25T11:55:48.304Z,5.53
2022-10-25T11:58:35.326Z,5.53
2022-10-25T12:01:30.289Z,5.28
2022-10-25T12:04:06.262Z,11.95
2022-10-25T12:07:05.774Z,6.03
2022-10-25T12:10:07.093Z,4.38
2022-10-25T12:12:46.669Z,10.32
2022-10-25T12:15:23.406Z,8.80
2022-10-25T12:17:51.480Z,7.40
2022-10-25T12:20:24.470Z,6.88
2022-10-25T12:22:56.168Z,5.68
2022-10-25T12:25:43.371Z,5.18
2022-10-25T12:28:37.775Z,9.35
2022-10-25T12:31:12.452Z,8.30
2022-10-25T12:34:08.258Z,5.20
2022-10-25T12:36:59.772Z,5.70
2022-10-25T12:39:36.351Z,7.07
2022-10-25T12:42:07.689Z,6.25
2022-10-25T12:44:46.337Z,5.90
2022-10-25T12:47:31.241Z,9.00
2022-10-25T12:50:39.748Z,9.45
2022-10-25T12:53:44.128Z,6.07
2022-10-25T12:56:37.564Z,19.50
2022-10-25T12:59:19.030Z,5.28
2022-10-25T13:02:10.958Z,5.47
2022-10-25T13:05:03.706Z,8.10
2022-10-25T13:07:33.532Z,5.65
2022-10-25T13:10:15.256Z,5.50
2022-10-25T13:12:44.053Z,7.93
2022-10-25T13:15:18.965Z,7.95
2022-10-25T13:17:58.880Z,9.40
2022-10-25T13:20:34.909Z,7.93
2022-10-25T13:23:40.418Z,8.15
2022-10-25T13:26:12.898Z,6.03
2022-10-25T13:28:57.262Z,11.40
2022-10-25T13:31:36.380Z,10.75
2022-10-25T13:34:09.345Z,11.00
2022-10-25T13:37:04.279Z,9.98
2022-10-25T13:39:43.984Z,16.08
2022-10-25T13:42:16.783Z,11.10
2022-10-25T13:45:02.143Z,17.35
2022-10-25T13:47:39.505Z,14.15
2022-10-25T13:50:21.634Z,18.15
2022-10-25T13:53:13.295Z,12.20
2022-10-25T13:55:47.815Z,14.43
2022-10-25T13:58:32.074Z,13.82
2022-10-25T14:01:17.958Z,20.92
2022-10-25T14:04:19.457Z,15.48
2022-10-25T14:06:47.018Z,13.88
2022-10-25T14:09:33.524Z,6.07
2022-10-25T14:12:06.540Z,15.43
2022-10-25T14:15:07.953Z,11.65
2022-10-25T14:17:41.720Z,15.07
2022-10-25T14:20:08.875Z,16.02
2022-10-25T14:22:42.334Z,9.30
2022-10-25T14:25:15.251Z,20.38
2022-10-25T14:27:42.107Z,17.00
2022-10-25T14:30:27.184Z,15.85
2022-10-25T14:32:59.836Z,11.73
2022-10-25T14:35:46.374Z,9.50
2022-10-25T14:38:27.912Z,7.22
2022-10-25T14:41:12.183Z,19.13
2022-10-25T14:43:39.693Z,12.57
2022-10-25T14:46:06.502Z,12.60
2022-10-25T14:48:33.837Z,19.13
2022-10-25T14:51:06.013Z,16.67
2022-10-25T14:53:33.940Z,24.52
2022-10-25T14:56:03.963Z,51.55
2022-10-25T14:58:42.773Z,16.27
2022-10-25T15:01:12.493Z,23.85
2022-10-25T15:03:45.479Z,18.02
2022-10-25T15:06:14.707Z,23.80
2022-10-25T15:08:42.603Z,16.55
2022-10-25T15:11:19.312Z,35.60
2022-10-25T15:16:36.461Z,29.55
2022-10-25T15:19:06.228Z,28.77
2022-10-25T15:21:48.466Z,30.85
2022-10-25T15:24:24.640Z,34.03
2022-10-25T15:27:02.902Z,23.85
2022-10-25T15:29:31.336Z,20.02
2022-10-25T15:31:58.386Z,20.33
2022-10-25T15:34:25.368Z,38.00
2022-10-25T15:36:52.360Z,24.17
2022-10-25T15:39:27.585Z,23.65
2022-10-25T15:41:54.819Z,30.27
2022-10-25T15:44:22.069Z,27.08
2022-10-25T15:46:49.660Z,31.05
2022-10-25T15:49:16.712Z,26.33
2022-10-25T15:51:45.024Z,24.95
2022-10-25T15:54:17.676Z,27.67
2022-10-25T15:56:45.421Z,25.88
2022-10-25T15:59:12.670Z,21.17
2022-10-25T16:01:46.702Z,22.10
2022-10-25T16:04:16.017Z,27.77
2022-10-25T16:06:44.456Z,26.52
2022-10-25T16:09:11.829Z,22.88
2022-10-25T16:11:43.728Z,30.75
2022-10-25T16:14:23.062Z,27.00
2022-10-25T16:16:50.474Z,18.25
2022-10-25T16:19:19.390Z,22.88
2022-10-25T16:21:46.437Z,22.70
2022-10-25T16:24:13.950Z,31.50
2022-10-25T16:26:44.305Z,29.50
2022-10-25T16:29:19.601Z,25.65
2022-10-25T16:31:46.658Z,21.08
2022-10-25T16:34:17.419Z,26.00
2022-10-25T16:36:44.745Z,20.88
2022-10-25T16:39:12.231Z,25.27
2022-10-25T16:41:41.725Z,26.35
2022-10-25T16:44:11.400Z,25.48
2022-10-25T16:46:38.939Z,30.15
2022-10-25T16:49:06.542Z,21.02
2022-10-25T16:51:34.847Z,21.48
2022-10-25T16:54:02.466Z,26.23
2022-10-25T16:56:29.400Z,21.23
2022-10-25T16:58:56.280Z,22.88
2022-10-25T17:01:34.890Z,24.85
2022-10-25T17:04:03.973Z,23.85
2022-10-25T17:06:46.779Z,27.48
2022-10-25T17:09:13.919Z,28.27
2022-10-25T17:11:41.141Z,31.92
2022-10-25T17:14:11.562Z,28.88
2022-10-25T17:16:44.004Z,31.58
2022-10-25T17:19:11.531Z,27.00
2022-10-25T17:21:39.624Z,21.90
2022-10-25T17:24:08.605Z,31.20
2022-10-25T17:26:36.498Z,23.20
2022-10-25T17:29:03.837Z,25.75
2022-10-25T17:31:32.664Z,21.05
2022-10-25T17:34:00.719Z,22.80
2022-10-25T17:36:29.162Z,27.23
2022-10-25T17:38:56.131Z,21.02
2022-10-25T17:41:23.051Z,22.50
2022-10-25T17:43:53.192Z,22.77
2022-10-25T17:46:25.635Z,25.42
2022-10-25T17:48:58.632Z,28.90
2022-10-25T17:51:25.768Z,24.02
2022-10-25T17:53:54.396Z,25.42
2022-10-25T17:56:23.096Z,21.73
2022-10-25T17:58:51.222Z,25.30
2022-10-25T18:01:21.213Z,26.20
2022-10-25T18:03:48.498Z,30.27
2022-10-25T18:06:17.941Z,21.30
2022-10-25T18:08:45.730Z,27.55
2022-10-25T18:11:22.473Z,27.38
2022-10-25T18:13:52.032Z,29.30
2022-10-25T18:16:19.003Z,27.73
2022-10-25T18:18:45.920Z,27.75
2022-10-25T18:21:14.790Z,25.30
2022-10-25T18:23:42.354Z,26.38
2022-10-25T18:26:11.289Z,31.70
2022-10-25T18:28:38.808Z,25.73
2022-10-25T18:31:11.219Z,22.42
2022-10-25T18:33:40.361Z,21.67
2022-10-25T18:36:08.955Z,30.05
2022-10-25T18:38:36.579Z,31.52
2022-10-25T18:41:14.576Z,26.83
2022-10-25T18:43:42.114Z,25.02
2022-10-25T18:46:09.080Z,22.58
2022-10-25T18:48:36.059Z,21.50
2022-10-25T18:51:08.032Z,22.17
2022-10-25T18:53:39.557Z,21.85
2022-10-25T18:56:11.434Z,27.33
2022-10-25T18:58:39.428Z,24.17
2022-10-25T19:01:11.458Z,23.45
2022-10-25T19:03:39.383Z,20.27
2022-10-25T19:06:07.261Z,24.35
2022-10-25T19:08:35.958Z,26.40
2022-10-25T19:11:10.165Z,22.40
2022-10-25T19:13:37.440Z,18.98
2022-10-25T19:16:05.051Z,24.73
2022-10-25T19:18:33.586Z,26.35
2022-10-25T19:21:06.419Z,18.52
2022-10-25T19:23:34.386Z,29.45
2022-10-25T19:26:07.120Z,16.45
2022-10-25T19:28:34.500Z,22.67
2022-10-25T19:31:05.330Z,16.55
2022-10-25T19:33:32.491Z,19.05
2022-10-25T19:36:10.128Z,23.30
2022-10-25T19:38:38.291Z,22.92
2022-10-25T19:41:08.354Z,31.20
2022-10-25T19:43:36.236Z,22.67
2022-10-25T19:46:05.731Z,28.08
2022-10-25T19:48:33.201Z,24.13
2022-10-25T19:51:07.298Z,23.20
2022-10-25T19:53:34.880Z,24.48
2022-10-25T19:56:10.356Z,26.20
2022-10-25T19:58:37.393Z,20.98
2022-10-25T20:01:19.457Z,22.17
2022-10-25T20:03:49.645Z,20.00
2022-10-25T20:06:23.376Z,21.75
2022-10-25T20:08:52.534Z,24.98
2022-10-25T20:11:19.926Z,26.67
2022-10-25T20:13:47.037Z,15.98
2022-10-25T20:16:14.670Z,21.77
2022-10-25T20:18:42.541Z,23.15
2022-10-25T20:21:10.538Z,21.88
2022-10-25T20:23:38.819Z,23.65
2022-10-25T20:26:19.381Z,18.55
2022-10-25T20:28:46.964Z,28.08
2022-10-25T20:31:14.683Z,19.83
2022-10-25T20:33:42.183Z,19.90
2022-10-25T20:36:11.717Z,18.67
2022-10-25T20:38:39.333Z,21.05
2022-10-25T20:41:12.107Z,22.45
2022-10-25T20:43:40.046Z,18.27
2022-10-25T20:46:08.373Z,20.10
2022-10-25T20:48:35.624Z,25.30
2022-10-25T20:51:05.491Z,17.90
2022-10-25T20:53:35.808Z,22.10
2022-10-25T20:56:03.321Z,21.38
2022-10-25T20:58:30.300Z,20.98
2022-10-25T21:00:57.722Z,20.65
2022-10-25T21:03:26.147Z,23.63
2022-10-25T21:06:04.310Z,22.65
2022-10-25T21:08:31.964Z,14.75
2022-10-25T21:11:05.911Z,19.63
2022-10-25T21:13:34.691Z,22.23
2022-10-25T21:16:21.892Z,25.33
2022-10-25T21:18:48.832Z,23.02
2022-10-25T21:21:18.097Z,17.77
2022-10-25T21:23:46.744Z,18.83
2022-10-25T21:26:14.004Z,19.38
2022-10-25T21:28:41.849Z,17.25
2022-10-25T21:31:11.661Z,17.58
2022-10-25T21:33:39.554Z,18.88
2022-10-25T21:36:09.464Z,20.90
2022-10-25T21:38:36.450Z,18.23
2022-10-25T21:41:10.898Z,22.38
2022-10-25T21:43:42.898Z,20.92
2022-10-25T21:46:09.954Z,19.20
2022-10-25T21:48:37.236Z,19.80
2022-10-25T21:51:04.432Z,19.98
2022-10-25T21:53:31.612Z,17.75
2022-10-25T21:56:12.052Z,18.77
2022-10-25T21:58:40.654Z,20.15
2022-10-25T22:01:13.242Z,19.30
2022-10-25T22:03:41.026Z,29.08
2022-10-25T22:06:13.544Z,21.85
2022-10-25T22:08:41.406Z,18.55
2022-10-25T22:11:10.890Z,21.45
2022-10-25T22:13:37.867Z,19.38
2022-10-25T22:16:07.764Z,19.38
2022-10-25T22:18:35.552Z,22.63
2022-10-25T22:21:06.121Z,17.20
2022-10-25T22:23:34.058Z,15.68
2022-10-25T22:26:03.677Z,20.50
2022-10-25T22:28:30.684Z,22.08
2022-10-25T22:31:02.321Z,24.88
2022-10-25T22:33:30.658Z,20.70
2022-10-25T22:36:06.087Z,20.73
2022-10-25T22:38:33.366Z,18.77
2022-10-25T22:41:05.519Z,19.27
2022-10-25T22:43:35.675Z,22.38
2022-10-25T22:46:05.105Z,16.40
2022-10-25T22:48:36.794Z,21.35
2022-10-25T22:51:04.598Z,16.05
2022-10-25T22:53:32.208Z,17.02
2022-10-25T22:56:05.240Z,18.65
2022-10-25T22:58:33.863Z,11.73
2022-10-25T23:01:09.530Z,17.55
2022-10-25T23:03:41.459Z,19.05
2022-10-25T23:06:12.232Z,24.83
2022-10-25T23:08:39.157Z,15.98
2022-10-25T23:11:10.122Z,16.45
2022-10-25T23:13:37.235Z,21.50
2022-10-25T23:16:04.209Z,14.65
2022-10-25T23:18:31.615Z,16.45
2022-10-25T23:21:01.215Z,17.13
2022-10-25T23:23:29.822Z,13.52
2022-10-25T23:26:00.253Z,16.02
2022-10-25T23:28:30.380Z,16.55
2022-10-25T23:31:03.782Z,18.05
2022-10-25T23:33:30.828Z,16.63
2022-10-25T23:36:02.865Z,21.42
2022-10-25T23:38:30.231Z,14.95
2022-10-25T23:40:57.116Z,14.25
2022-10-25T23:43:24.163Z,13.70
2022-10-25T23:45:51.155Z,15.15
2022-10-25T23:48:18.076Z,16.85
2022-10-25T23:50:44.980Z,13.00
2022-10-25T23:53:11.889Z,15.57
2022-10-25T23:55:39.265Z,13.25
2022-10-25T23:58:06.140Z,16.40
